createdAt,value
2018-06-20T00:00:10.731Z,19.10
2018-06-20T00:01:10.720Z,19.90
2018-06-20T00:02:10.708Z,19.40
2018-06-20T00:03:10.697Z,20.40
2018-06-20T00:04:10.682Z,18.90
2018-06-20T00:05:10.680Z,20.00
2018-06-20T00:06:10.691Z,18.30
2018-06-20T00:07:10.659Z,18.80
2018-06-20T00:08:10.650Z,18.70
2018-06-20T00:09:10.630Z,17.90
2018-06-20T00:10:10.619Z,18.50
2018-06-20T00:11:10.606Z,18.40
2018-06-20T00:12:10.604Z,17.90
2018-06-20T00:13:10.582Z,17.70
2018-06-20T00:14:10.630Z,19.30
2018-06-20T00:15:10.569Z,17.80
2018-06-20T00:16:10.647Z,18.30
2018-06-20T00:17:10.535Z,19.20
2018-06-20T00:18:10.551Z,18.80
2018-06-20T00:19:10.512Z,18.60
2018-06-20T00:20:10.511Z,18.40
2018-06-20T00:21:10.502Z,18.10
2018-06-20T00:22:10.579Z,17.40
2018-06-20T00:23:10.472Z,17.60
2018-06-20T00:24:10.460Z,18.10
2018-06-20T00:25:10.446Z,17.50
2018-06-20T00:26:10.444Z,18.40
2018-06-20T00:27:10.430Z,18.40
2018-06-20T00:28:10.414Z,18.40
2018-06-20T00:29:10.406Z,18.00
2018-06-20T00:30:10.403Z,17.70
2018-06-20T00:31:10.381Z,19.30
2018-06-20T00:32:10.368Z,19.20
2018-06-20T00:33:10.358Z,19.00
2018-06-20T00:34:10.397Z,18.90
2018-06-20T00:35:10.333Z,19.80
2018-06-20T00:36:10.332Z,19.70
2018-06-20T00:37:10.309Z,19.00
2018-06-20T00:38:10.302Z,19.10
2018-06-20T00:39:10.292Z,19.30
2018-06-20T00:40:10.280Z,19.40
2018-06-20T00:41:10.267Z,18.10
2018-06-20T00:42:10.257Z,18.50
2018-06-20T00:43:10.241Z,19.70
2018-06-20T00:44:10.232Z,19.10
2018-06-20T00:45:10.222Z,19.60
2018-06-20T00:46:10.215Z,18.90
2018-06-20T00:47:10.197Z,19.80
2018-06-20T00:48:10.188Z,19.70
2018-06-20T00:49:10.191Z,19.60
2018-06-20T00:50:10.169Z,18.50
2018-06-20T00:51:10.152Z,18.60
2018-06-20T00:52:10.143Z,18.30
2018-06-20T00:53:10.133Z,19.30
2018-06-20T00:54:10.120Z,19.00
2018-06-20T00:55:10.118Z,19.50
2018-06-20T00:56:10.100Z,18.20
2018-06-20T00:57:10.082Z,18.70
2018-06-20T00:58:10.072Z,19.50
2018-06-20T00:59:10.061Z,19.10
2018-06-20T01:00:10.050Z,19.20
2018-06-20T01:01:10.039Z,19.90
2018-06-20T01:02:10.029Z,19.80
2018-06-20T01:03:10.021Z,20.20
2018-06-20T01:04:10.015Z,19.70
2018-06-20T01:05:09.990Z,19.20
2018-06-20T01:06:09.981Z,19.90
2018-06-20T01:07:09.971Z,19.70
2018-06-20T01:08:09.960Z,19.00
2018-06-20T01:09:09.944Z,19.40
2018-06-20T01:10:09.941Z,19.30
2018-06-20T01:11:09.924Z,18.40
2018-06-20T01:12:09.923Z,18.90
2018-06-20T01:13:09.915Z,18.70
2018-06-20T01:14:09.890Z,18.60
2018-06-20T01:15:09.882Z,19.00
2018-06-20T01:16:09.873Z,19.50
2018-06-20T01:17:09.859Z,19.30
2018-06-20T01:18:09.847Z,20.60
2018-06-20T01:19:09.833Z,20.10
2018-06-20T01:20:09.822Z,20.20
2018-06-20T01:21:09.809Z,20.60
2018-06-20T01:22:09.802Z,20.00
2018-06-20T01:23:09.789Z,21.00
2018-06-20T01:24:09.784Z,20.70
2018-06-20T01:25:09.772Z,22.00
2018-06-20T01:26:09.751Z,23.40
2018-06-20T01:27:09.757Z,21.30
2018-06-20T01:28:09.734Z,22.30
2018-06-20T01:29:09.721Z,21.00
2018-06-20T01:30:09.708Z,19.50
2018-06-20T01:31:09.699Z,21.00
2018-06-20T01:32:09.684Z,21.10
2018-06-20T01:33:09.670Z,19.00
2018-06-20T01:34:09.660Z,20.50
2018-06-20T01:35:09.650Z,20.10
2018-06-20T01:36:09.639Z,20.20
2018-06-20T01:37:09.624Z,19.50
2018-06-20T01:38:09.613Z,19.90
2018-06-20T01:39:09.601Z,20.30
2018-06-20T01:40:09.588Z,20.00
2018-06-20T01:41:09.585Z,19.30
2018-06-20T01:42:09.570Z,19.30
2018-06-20T01:43:09.565Z,19.30
2018-06-20T01:44:09.543Z,19.60
2018-06-20T01:45:09.531Z,19.40
2018-06-20T01:46:09.521Z,19.90
2018-06-20T01:47:09.511Z,19.00
2018-06-20T01:48:09.500Z,19.80
2018-06-20T01:49:09.491Z,20.70
2018-06-20T01:50:09.481Z,20.90
2018-06-20T01:51:09.462Z,21.60
2018-06-20T01:52:09.459Z,21.20
2018-06-20T01:53:09.444Z,23.70
2018-06-20T01:54:09.431Z,21.90
2018-06-20T01:55:09.420Z,21.00
2018-06-20T01:56:09.406Z,20.50
2018-06-20T01:57:09.391Z,22.60
2018-06-20T01:58:09.382Z,22.20
2018-06-20T01:59:09.372Z,22.60
2018-06-20T02:00:09.361Z,22.30
2018-06-20T02:01:09.354Z,23.00
2018-06-20T02:02:09.340Z,23.50
2018-06-20T02:03:09.323Z,22.50
2018-06-20T02:04:09.312Z,22.40
2018-06-20T02:05:09.302Z,23.20
2018-06-20T02:06:09.286Z,22.70
2018-06-20T02:07:09.280Z,23.00
2018-06-20T02:08:09.271Z,22.70
2018-06-20T02:09:09.253Z,23.70
2018-06-20T02:10:09.249Z,22.90
2018-06-20T02:11:09.233Z,22.90
2018-06-20T02:12:09.219Z,23.90
2018-06-20T02:13:09.207Z,24.00
2018-06-20T02:14:09.255Z,23.50
2018-06-20T02:15:09.181Z,24.30
2018-06-20T02:16:09.175Z,25.00
2018-06-20T02:17:09.162Z,25.20
2018-06-20T02:18:09.150Z,24.20
2018-06-20T02:19:09.137Z,24.90
2018-06-20T02:20:09.191Z,23.70
2018-06-20T02:21:09.118Z,23.90
2018-06-20T02:22:09.102Z,24.60
2018-06-20T02:23:09.093Z,23.70
2018-06-20T02:24:09.178Z,25.40
2018-06-20T02:25:09.070Z,23.70
2018-06-20T02:26:09.163Z,24.90
2018-06-20T02:27:09.041Z,24.40
2018-06-20T02:28:09.082Z,24.30
2018-06-20T02:29:09.018Z,24.00
2018-06-20T02:30:09.114Z,24.90
2018-06-20T02:31:09.000Z,24.50
2018-06-20T02:32:09.036Z,25.00
2018-06-20T02:33:08.973Z,24.70
2018-06-20T02:34:08.958Z,24.70
2018-06-20T02:35:08.953Z,25.10
2018-06-20T02:36:08.939Z,24.20
2018-06-20T02:37:08.928Z,25.50
2018-06-20T02:38:08.911Z,25.10
2018-06-20T02:39:08.899Z,24.90
2018-06-20T02:40:08.891Z,24.50
2018-06-20T02:41:08.874Z,24.70
2018-06-20T02:42:08.871Z,24.90
2018-06-20T02:43:08.852Z,23.60
2018-06-20T02:44:08.843Z,25.90
2018-06-20T02:45:08.826Z,25.50
2018-06-20T02:46:08.828Z,25.00
2018-06-20T02:47:08.816Z,24.70
2018-06-20T02:48:08.799Z,25.10
2018-06-20T02:49:08.788Z,25.00
2018-06-20T02:50:08.772Z,23.20
2018-06-20T02:51:08.762Z,25.20
2018-06-20T02:52:08.752Z,23.30
2018-06-20T02:53:08.744Z,24.20
2018-06-20T02:54:08.730Z,24.30
2018-06-20T02:55:08.710Z,25.00
2018-06-20T02:56:08.701Z,25.70
2018-06-20T02:57:08.691Z,24.90
2018-06-20T02:58:08.681Z,25.30
2018-06-20T02:59:08.668Z,23.70
2018-06-20T03:00:08.656Z,25.70
2018-06-20T03:01:08.640Z,26.30
2018-06-20T03:02:08.640Z,25.70
2018-06-20T03:03:08.621Z,24.90
2018-06-20T03:04:08.611Z,24.80
2018-06-20T03:05:08.649Z,25.20
2018-06-20T03:06:08.594Z,24.90
2018-06-20T03:07:08.574Z,26.00
2018-06-20T03:08:08.568Z,26.20
2018-06-20T03:09:08.557Z,26.90
2018-06-20T03:10:08.541Z,25.60
2018-06-20T03:11:08.534Z,27.00
2018-06-20T03:12:08.511Z,25.40
2018-06-20T03:13:08.502Z,26.40
2018-06-20T03:14:08.489Z,29.40
2018-06-20T03:15:08.481Z,28.40
2018-06-20T03:16:08.465Z,27.50
2018-06-20T03:17:08.453Z,28.90
2018-06-20T03:18:08.451Z,28.70
2018-06-20T03:19:08.434Z,28.10
2018-06-20T03:20:08.422Z,28.30
2018-06-20T03:21:08.413Z,28.60
2018-06-20T03:22:08.404Z,30.50
2018-06-20T03:23:08.381Z,29.60
2018-06-20T03:24:08.371Z,30.10
2018-06-20T03:25:08.360Z,30.60
2018-06-20T03:26:08.346Z,28.90
2018-06-20T03:27:08.342Z,29.80
2018-06-20T03:28:08.324Z,29.50
2018-06-20T03:29:08.315Z,27.70
2018-06-20T03:30:08.298Z,28.50
2018-06-20T03:31:08.300Z,28.70
2018-06-20T03:32:08.285Z,27.80
2018-06-20T03:33:08.267Z,27.80
2018-06-20T03:34:08.262Z,26.70
2018-06-20T03:35:08.242Z,27.50
2018-06-20T03:36:08.231Z,27.60
2018-06-20T03:37:08.221Z,27.50
2018-06-20T03:38:08.211Z,27.90
2018-06-20T03:39:08.196Z,27.40
2018-06-20T03:40:08.182Z,27.50
2018-06-20T03:41:08.186Z,28.20
2018-06-20T03:42:08.161Z,28.10
2018-06-20T03:43:08.153Z,28.10
2018-06-20T03:44:08.136Z,27.50
2018-06-20T03:45:08.172Z,28.30
2018-06-20T03:46:08.113Z,28.60
2018-06-20T03:47:08.104Z,27.90
2018-06-20T03:48:08.088Z,28.20
2018-06-20T03:49:08.082Z,27.50
2018-06-20T03:50:08.073Z,27.60
2018-06-20T03:51:08.054Z,27.00
2018-06-20T03:52:08.042Z,28.40
2018-06-20T03:53:08.033Z,27.30
2018-06-20T03:54:08.019Z,27.90
2018-06-20T03:55:08.009Z,27.80
2018-06-20T03:56:08.002Z,28.50
2018-06-20T03:57:07.984Z,28.10
2018-06-20T03:58:07.973Z,28.00
2018-06-20T03:59:07.962Z,27.40
2018-06-20T04:00:07.953Z,27.50
2018-06-20T04:01:07.940Z,27.70
2018-06-20T04:02:07.924Z,27.80
2018-06-20T04:03:07.912Z,27.50
2018-06-20T04:04:07.902Z,27.30
2018-06-20T04:05:07.903Z,27.80
2018-06-20T04:06:07.877Z,28.20
2018-06-20T04:07:07.869Z,27.80
2018-06-20T04:08:07.849Z,28.40
2018-06-20T04:09:07.847Z,27.80
2018-06-20T04:10:07.832Z,28.50
2018-06-20T04:11:07.824Z,28.20
2018-06-20T04:12:07.805Z,29.00
2018-06-20T04:13:07.795Z,30.00
2018-06-20T04:14:07.786Z,29.50
2018-06-20T04:15:07.774Z,29.80
2018-06-20T04:16:07.760Z,29.20
2018-06-20T04:17:07.756Z,29.20
2018-06-20T04:18:07.745Z,30.10
2018-06-20T04:19:07.723Z,29.50
2018-06-20T04:20:07.711Z,30.70
2018-06-20T04:21:07.707Z,30.50
2018-06-20T04:22:07.706Z,30.30
2018-06-20T04:23:07.684Z,31.20
2018-06-20T04:24:07.717Z,32.40
2018-06-20T04:25:07.651Z,31.90
2018-06-20T04:26:07.653Z,32.20
2018-06-20T04:27:07.628Z,34.20
2018-06-20T04:28:07.658Z,32.80
2018-06-20T04:29:07.612Z,34.90
2018-06-20T04:30:07.633Z,34.10
2018-06-20T04:31:07.582Z,33.60
2018-06-20T04:32:07.622Z,35.70
2018-06-20T04:33:07.562Z,34.70
2018-06-20T04:34:07.548Z,33.60
2018-06-20T04:35:07.536Z,32.50
2018-06-20T04:36:07.528Z,32.50
2018-06-20T04:37:07.518Z,33.00
2018-06-20T04:38:07.503Z,31.70
2018-06-20T04:39:07.495Z,32.80
2018-06-20T04:40:07.477Z,32.00
2018-06-20T04:41:07.470Z,33.30
2018-06-20T04:42:07.454Z,31.60
2018-06-20T04:43:07.442Z,31.40
2018-06-20T04:44:07.431Z,31.30
2018-06-20T04:45:07.424Z,31.30
2018-06-20T04:46:07.412Z,30.20
2018-06-20T04:47:07.402Z,29.80
2018-06-20T04:48:07.390Z,30.10
2018-06-20T04:49:07.377Z,28.50
2018-06-20T04:50:07.364Z,30.00
2018-06-20T04:51:07.353Z,30.00
2018-06-20T04:52:07.342Z,28.90
2018-06-20T04:53:07.332Z,29.40
2018-06-20T04:54:07.320Z,29.90
2018-06-20T04:55:07.304Z,29.80
2018-06-20T04:56:07.292Z,29.20
2018-06-20T04:57:07.281Z,29.90
2018-06-20T04:58:07.269Z,29.30
2018-06-20T04:59:07.258Z,30.00
2018-06-20T05:00:07.249Z,28.80
2018-06-20T05:01:07.236Z,29.80
2018-06-20T05:02:07.224Z,30.10
2018-06-20T05:03:07.220Z,30.10
2018-06-20T05:04:07.215Z,30.80
2018-06-20T05:05:07.198Z,30.50
2018-06-20T05:06:07.183Z,31.20
2018-06-20T05:07:07.177Z,30.60
2018-06-20T05:08:07.158Z,31.10
2018-06-20T05:09:07.145Z,30.50
2018-06-20T05:10:07.137Z,30.70
2018-06-20T05:11:07.122Z,30.30
2018-06-20T05:12:07.114Z,30.30
2018-06-20T05:13:07.104Z,30.10
2018-06-20T05:14:07.090Z,30.80
2018-06-20T05:15:07.077Z,28.80
2018-06-20T05:16:07.073Z,30.60
2018-06-20T05:17:07.060Z,32.20
2018-06-20T05:18:07.049Z,31.50
2018-06-20T05:19:07.032Z,31.10
2018-06-20T05:20:07.022Z,31.80
2018-06-20T05:21:07.011Z,31.60
2018-06-20T05:22:06.999Z,31.10
2018-06-20T05:23:06.990Z,31.30
2018-06-20T05:24:06.976Z,31.70
2018-06-20T05:25:06.966Z,31.50
2018-06-20T05:26:06.961Z,30.90
2018-06-20T05:27:06.946Z,30.80
2018-06-20T05:28:06.933Z,32.10
2018-06-20T05:29:06.930Z,31.60
2018-06-20T05:30:06.918Z,30.90
2018-06-20T05:31:06.905Z,29.50
2018-06-20T05:32:06.891Z,32.20
2018-06-20T05:33:06.892Z,31.50
2018-06-20T05:34:06.874Z,31.20
2018-06-20T05:35:06.859Z,31.50
2018-06-20T05:36:06.853Z,32.40
2018-06-20T05:37:06.843Z,31.90
2018-06-20T05:38:06.824Z,31.90
2018-06-20T05:39:06.917Z,33.50
2018-06-20T05:40:06.804Z,33.60
2018-06-20T05:41:06.833Z,32.20
2018-06-20T05:42:06.793Z,33.10
2018-06-20T05:43:06.828Z,33.60
2018-06-20T05:44:06.770Z,33.40
2018-06-20T05:45:06.752Z,31.30
2018-06-20T05:46:06.742Z,31.10
2018-06-20T05:47:06.782Z,30.60
2018-06-20T05:48:06.718Z,30.80
2018-06-20T05:49:06.712Z,31.40
2018-06-20T05:50:06.698Z,29.60
2018-06-20T05:51:06.686Z,29.60
2018-06-20T05:52:06.680Z,30.10
2018-06-20T05:53:06.683Z,30.80
2018-06-20T05:54:06.657Z,30.10
2018-06-20T05:55:06.644Z,30.10
2018-06-20T05:56:06.634Z,30.10
2018-06-20T05:57:06.623Z,30.20
2018-06-20T05:58:06.615Z,30.30
2018-06-20T05:59:06.600Z,29.60
2018-06-20T06:00:06.603Z,28.70
2018-06-20T06:01:06.584Z,29.40
2018-06-20T06:02:06.574Z,29.20
2018-06-20T06:03:06.562Z,29.40
2018-06-20T06:04:06.553Z,28.80
2018-06-20T06:05:06.592Z,28.20
2018-06-20T06:06:06.542Z,28.00
2018-06-20T06:07:06.523Z,27.00
2018-06-20T06:08:06.517Z,26.80
2018-06-20T06:09:06.498Z,27.40
2018-06-20T06:10:06.487Z,26.60
2018-06-20T06:11:06.483Z,26.00
2018-06-20T06:12:06.507Z,27.10
2018-06-20T06:13:06.472Z,25.50
2018-06-20T06:14:06.455Z,26.00
2018-06-20T06:15:06.439Z,25.40
2018-06-20T06:16:06.432Z,25.40
2018-06-20T06:17:06.512Z,24.80
2018-06-20T06:18:06.409Z,24.40
2018-06-20T06:19:06.400Z,24.70
2018-06-20T06:20:06.387Z,24.80
2018-06-20T06:21:06.382Z,24.70
2018-06-20T06:22:06.374Z,25.00
2018-06-20T06:23:06.361Z,25.30
2018-06-20T06:24:06.350Z,26.70
2018-06-20T06:25:06.342Z,23.10
2018-06-20T06:26:06.339Z,22.60
2018-06-20T06:27:06.321Z,23.20
2018-06-20T06:28:06.332Z,23.90
2018-06-20T06:29:06.299Z,23.50
2018-06-20T06:30:06.341Z,22.00
2018-06-20T06:31:06.277Z,22.00
2018-06-20T06:32:06.262Z,22.60
2018-06-20T06:33:06.252Z,22.50
2018-06-20T06:34:06.249Z,21.80
2018-06-20T06:35:06.235Z,22.20
2018-06-20T06:36:06.219Z,22.00
2018-06-20T06:37:06.214Z,21.90
2018-06-20T06:38:06.202Z,21.30
2018-06-20T06:39:06.187Z,20.80
2018-06-20T06:40:06.193Z,22.20
2018-06-20T06:41:06.171Z,21.40
2018-06-20T06:42:06.158Z,21.20
2018-06-20T06:43:06.151Z,21.50
2018-06-20T06:44:06.147Z,20.40
2018-06-20T06:45:06.130Z,20.90
2018-06-20T06:46:06.116Z,20.90
2018-06-20T06:47:06.113Z,20.90
2018-06-20T06:48:06.100Z,21.00
2018-06-20T06:49:06.082Z,22.00
2018-06-20T06:50:06.248Z,21.20
2018-06-20T06:51:06.062Z,21.80
2018-06-20T06:52:06.054Z,21.50
2018-06-20T06:53:06.043Z,21.30
2018-06-20T06:54:06.029Z,22.30
2018-06-20T06:55:06.023Z,21.30
2018-06-20T06:56:06.046Z,21.70
2018-06-20T06:57:06.006Z,22.80
2018-06-20T06:58:05.986Z,22.10
2018-06-20T06:59:05.978Z,22.90
2018-06-20T07:00:05.975Z,19.60
2018-06-20T07:01:05.954Z,21.80
2018-06-20T07:02:05.945Z,20.80
2018-06-20T07:03:05.940Z,21.50
2018-06-20T07:04:05.924Z,22.50
2018-06-20T07:05:05.911Z,21.10
2018-06-20T07:06:05.902Z,21.20
2018-06-20T07:07:05.897Z,20.30
2018-06-20T07:08:05.882Z,21.30
2018-06-20T07:09:05.877Z,21.50
2018-06-20T07:10:05.861Z,20.30
2018-06-20T07:11:05.854Z,20.90
2018-06-20T07:12:05.841Z,21.80
2018-06-20T07:13:05.830Z,22.00
2018-06-20T07:14:05.823Z,21.20
2018-06-20T07:15:05.807Z,19.90
2018-06-20T07:16:05.802Z,21.20
2018-06-20T07:17:05.799Z,20.70
2018-06-20T07:18:05.782Z,20.30
2018-06-20T07:19:05.769Z,20.90
2018-06-20T07:20:05.758Z,21.40
2018-06-20T07:21:05.758Z,21.30
2018-06-20T07:22:05.743Z,21.90
2018-06-20T07:23:05.726Z,20.40
2018-06-20T07:24:05.728Z,20.80
2018-06-20T07:25:05.710Z,21.00
2018-06-20T07:26:05.698Z,21.30
2018-06-20T07:27:05.791Z,20.50
2018-06-20T07:28:05.686Z,20.60
2018-06-20T07:29:05.669Z,20.10
2018-06-20T07:30:05.753Z,19.70
2018-06-20T07:31:05.759Z,19.90
2018-06-20T07:32:05.647Z,19.80
2018-06-20T07:33:05.630Z,19.70
2018-06-20T07:34:05.667Z,18.60
2018-06-20T07:35:05.610Z,19.10
2018-06-20T07:36:05.629Z,18.60
2018-06-20T07:37:05.633Z,19.10
2018-06-20T07:38:05.588Z,18.70
2018-06-20T07:39:05.623Z,19.60
2018-06-20T07:40:05.564Z,20.10
2018-06-20T07:41:05.556Z,20.20
2018-06-20T07:42:05.543Z,19.30
2018-06-20T07:43:05.534Z,18.50
2018-06-20T07:44:05.523Z,20.10
2018-06-20T07:45:05.541Z,18.80
2018-06-20T07:46:05.504Z,20.10
2018-06-20T07:47:05.493Z,19.30
2018-06-20T07:48:05.484Z,21.10
2018-06-20T07:49:05.493Z,19.40
2018-06-20T07:50:05.474Z,20.90
2018-06-20T07:51:05.457Z,20.20
2018-06-20T07:52:05.454Z,20.10
2018-06-20T07:53:05.442Z,20.80
2018-06-20T07:54:05.433Z,21.20
2018-06-20T07:55:05.425Z,20.40
2018-06-20T07:56:05.420Z,21.30
2018-06-20T07:57:05.404Z,21.60
2018-06-20T07:58:05.397Z,21.50
2018-06-20T07:59:05.393Z,21.40
2018-06-20T08:00:05.386Z,21.50
2018-06-20T08:01:05.533Z,21.90
2018-06-20T08:02:05.373Z,22.10
2018-06-20T08:03:05.352Z,22.40
2018-06-20T08:04:05.342Z,22.30
2018-06-20T08:05:05.337Z,22.10
2018-06-20T08:06:05.325Z,21.80
2018-06-20T08:07:05.317Z,22.80
2018-06-20T08:08:05.303Z,22.20
2018-06-20T08:09:05.292Z,24.30
2018-06-20T08:10:05.433Z,23.40
2018-06-20T08:11:05.283Z,24.00
2018-06-20T08:12:05.333Z,23.60
2018-06-20T08:13:05.272Z,25.50
2018-06-20T08:14:05.252Z,25.50
2018-06-20T08:15:05.240Z,26.50
2018-06-20T08:16:05.384Z,24.30
2018-06-20T08:17:05.225Z,26.00
2018-06-20T08:18:05.221Z,24.50
2018-06-20T08:19:05.205Z,26.90
2018-06-20T08:20:05.197Z,25.90
2018-06-20T08:21:05.191Z,25.20
2018-06-20T08:22:05.182Z,25.90
2018-06-20T08:23:05.165Z,26.70
2018-06-20T08:24:05.162Z,26.70
2018-06-20T08:25:05.148Z,25.80
2018-06-20T08:26:05.137Z,26.50
2018-06-20T08:27:05.126Z,28.00
2018-06-20T08:28:05.122Z,28.30
2018-06-20T08:29:05.117Z,27.30
2018-06-20T08:30:05.104Z,27.00
2018-06-20T08:31:05.095Z,27.10
2018-06-20T08:32:05.082Z,26.80
2018-06-20T08:33:05.073Z,25.60
2018-06-20T08:34:05.064Z,25.90
2018-06-20T08:35:05.051Z,25.60
2018-06-20T08:36:05.040Z,25.20
2018-06-20T08:37:05.032Z,25.60
2018-06-20T08:38:05.032Z,25.70
2018-06-20T08:39:05.015Z,24.20
2018-06-20T08:40:05.019Z,23.00
2018-06-20T08:41:05.004Z,23.10
2018-06-20T08:42:04.993Z,24.00
2018-06-20T08:43:04.986Z,22.90
2018-06-20T08:44:04.969Z,21.60
2018-06-20T08:45:04.962Z,21.60
2018-06-20T08:46:04.953Z,21.60
2018-06-20T08:47:04.942Z,21.30
2018-06-20T08:48:04.944Z,22.40
2018-06-20T08:49:04.932Z,20.40
2018-06-20T08:50:04.921Z,21.50
2018-06-20T08:51:04.912Z,19.00
2018-06-20T08:52:04.904Z,18.90
2018-06-20T08:53:04.929Z,19.20
2018-06-20T08:54:04.884Z,18.50
2018-06-20T08:55:04.880Z,19.00
2018-06-20T08:56:04.871Z,19.20
2018-06-20T08:57:04.861Z,18.60
2018-06-20T08:58:04.851Z,17.50
2018-06-20T08:59:04.844Z,17.80
2018-06-20T09:00:04.844Z,17.50
2018-06-20T09:01:04.831Z,16.30
2018-06-20T09:02:04.864Z,17.20
2018-06-20T09:03:04.813Z,16.20
2018-06-20T09:04:04.811Z,16.20
2018-06-20T09:05:04.796Z,17.40
2018-06-20T09:06:04.803Z,17.00
2018-06-20T09:07:04.780Z,17.60
2018-06-20T09:08:04.772Z,16.40
2018-06-20T09:09:04.778Z,16.60
2018-06-20T09:10:04.761Z,16.90
2018-06-20T09:11:04.754Z,17.30
2018-06-20T09:12:04.752Z,17.00
2018-06-20T09:13:04.737Z,16.40
2018-06-20T09:14:04.729Z,17.30
2018-06-20T09:15:04.718Z,16.40
2018-06-20T09:16:04.716Z,17.50
2018-06-20T09:17:04.702Z,17.50
2018-06-20T09:18:04.702Z,18.60
2018-06-20T09:19:04.689Z,18.60
2018-06-20T09:20:04.682Z,18.30
2018-06-20T09:21:04.667Z,18.30
2018-06-20T09:22:04.730Z,18.10
2018-06-20T09:23:04.652Z,19.80
2018-06-20T09:24:04.651Z,16.90
2018-06-20T09:25:04.635Z,17.40
2018-06-20T09:26:04.623Z,16.50
2018-06-20T09:27:04.613Z,17.50
2018-06-20T09:28:04.614Z,17.60
2018-06-20T09:29:04.601Z,18.30
2018-06-20T09:30:04.664Z,16.60
2018-06-20T09:31:04.589Z,17.40
2018-06-20T09:32:04.573Z,17.10
2018-06-20T09:33:04.561Z,16.00
2018-06-20T09:34:04.560Z,15.40
2018-06-20T09:35:04.551Z,16.40
2018-06-20T09:36:04.540Z,14.80
2018-06-20T09:37:04.535Z,14.90
2018-06-20T09:38:04.530Z,14.20
2018-06-20T09:39:04.526Z,14.50
2018-06-20T09:40:04.509Z,14.30
2018-06-20T09:41:04.510Z,13.80
2018-06-20T09:42:04.512Z,14.70
2018-06-20T09:43:04.489Z,14.70
2018-06-20T09:44:04.502Z,14.80
2018-06-20T09:45:04.484Z,14.70
2018-06-20T09:46:04.484Z,14.50
2018-06-20T09:47:04.474Z,15.30
2018-06-20T09:48:04.463Z,15.70
2018-06-20T09:49:04.449Z,14.40
2018-06-20T09:50:04.592Z,16.00
2018-06-20T09:51:04.430Z,14.90
2018-06-20T09:52:04.473Z,16.90
2018-06-20T09:53:04.422Z,15.20
2018-06-20T09:54:04.445Z,15.30
2018-06-20T09:55:04.402Z,15.30
2018-06-20T09:56:04.404Z,16.10
2018-06-20T09:57:04.387Z,16.30
2018-06-20T09:58:04.382Z,15.20
2018-06-20T09:59:04.371Z,15.00
2018-06-20T10:00:04.375Z,13.40
2018-06-20T10:01:04.360Z,13.50
2018-06-20T10:02:04.359Z,12.70
2018-06-20T10:03:04.342Z,12.90
2018-06-20T10:04:04.347Z,12.40
2018-06-20T10:05:04.333Z,12.70
2018-06-20T10:06:04.324Z,13.00
2018-06-20T10:07:04.315Z,13.10
2018-06-20T10:08:04.313Z,13.70
2018-06-20T10:09:04.304Z,13.30
2018-06-20T10:10:04.306Z,12.80
2018-06-20T10:11:04.297Z,13.60
2018-06-20T10:12:04.285Z,13.20
2018-06-20T10:13:04.272Z,13.40
2018-06-20T10:14:04.268Z,13.50
2018-06-20T10:15:04.255Z,13.80
2018-06-20T10:16:04.256Z,14.10
2018-06-20T10:17:04.242Z,14.00
2018-06-20T10:18:04.236Z,13.40
2018-06-20T10:19:04.227Z,13.30
2018-06-20T10:20:04.224Z,13.20
2018-06-20T10:21:04.260Z,12.40
2018-06-20T10:22:04.206Z,12.50
2018-06-20T10:23:04.197Z,12.20
2018-06-20T10:24:04.192Z,13.50
2018-06-20T10:25:04.194Z,13.30
2018-06-20T10:26:04.189Z,12.90
2018-06-20T10:27:04.169Z,13.80
2018-06-20T10:28:04.165Z,13.90
2018-06-20T10:29:04.163Z,13.20
2018-06-20T10:30:04.144Z,12.30
2018-06-20T10:31:04.193Z,12.30
2018-06-20T10:32:04.138Z,12.60
2018-06-20T10:33:04.138Z,12.30
2018-06-20T10:34:04.126Z,11.70
2018-06-20T10:35:04.112Z,11.40
2018-06-20T10:36:04.111Z,11.60
2018-06-20T10:37:04.099Z,11.70
2018-06-20T10:38:04.092Z,12.20
2018-06-20T10:39:04.084Z,11.90
2018-06-20T10:40:04.188Z,11.80
2018-06-20T10:41:04.070Z,12.00
2018-06-20T10:42:04.072Z,12.00
2018-06-20T10:43:04.058Z,11.60
2018-06-20T10:44:04.060Z,12.60
2018-06-20T10:45:04.044Z,11.10
2018-06-20T10:46:04.128Z,12.20
2018-06-20T10:47:04.040Z,12.20
2018-06-20T10:48:04.032Z,11.10
2018-06-20T10:49:04.031Z,11.60
2018-06-20T10:50:04.019Z,10.80
2018-06-20T10:51:04.015Z,11.30
2018-06-20T10:52:04.006Z,10.70
2018-06-20T10:53:04.001Z,10.70
2018-06-20T10:54:03.989Z,10.80
2018-06-20T10:55:03.992Z,11.90
2018-06-20T10:56:03.981Z,11.60
2018-06-20T10:57:03.970Z,11.40
2018-06-20T10:58:03.970Z,11.70
2018-06-20T10:59:03.976Z,10.60
2018-06-20T11:00:03.952Z,10.60
2018-06-20T11:01:03.950Z,11.30
2018-06-20T11:02:03.942Z,10.40
2018-06-20T11:03:03.951Z,9.70
2018-06-20T11:04:03.930Z,11.30
2018-06-20T11:05:03.929Z,10.80
2018-06-20T11:06:03.926Z,11.40
2018-06-20T11:07:03.976Z,12.50
2018-06-20T11:08:03.912Z,11.90
2018-06-20T11:09:03.901Z,11.20
2018-06-20T11:10:03.896Z,11.10
2018-06-20T11:11:03.892Z,11.00
2018-06-20T11:12:03.881Z,10.60
2018-06-20T11:13:03.880Z,11.20
2018-06-20T11:14:03.873Z,11.30
2018-06-20T11:15:03.868Z,12.20
2018-06-20T11:16:03.862Z,10.90
2018-06-20T11:17:03.862Z,11.20
2018-06-20T11:18:03.853Z,11.30
2018-06-20T11:19:03.901Z,11.00
2018-06-20T11:20:03.836Z,10.90
2018-06-20T11:21:03.833Z,11.10
2018-06-20T11:22:03.824Z,10.90
2018-06-20T11:23:03.822Z,11.70
2018-06-20T11:24:03.811Z,11.70
2018-06-20T11:25:03.824Z,11.80
2018-06-20T11:26:03.804Z,10.50
2018-06-20T11:27:03.802Z,10.50
2018-06-20T11:28:03.789Z,10.60
2018-06-20T11:29:03.783Z,10.50
2018-06-20T11:30:03.784Z,11.10
2018-06-20T11:31:03.816Z,10.70
2018-06-20T11:32:03.766Z,10.50
2018-06-20T11:33:03.762Z,10.90
2018-06-20T11:34:03.756Z,9.80
2018-06-20T11:35:03.747Z,9.80
2018-06-20T11:36:03.754Z,9.30
2018-06-20T11:37:03.737Z,9.30
2018-06-20T11:38:03.739Z,10.30
2018-06-20T11:39:03.725Z,9.70
2018-06-20T11:40:03.727Z,10.20
2018-06-20T11:41:03.709Z,9.60
2018-06-20T11:42:03.703Z,9.40
2018-06-20T11:43:03.701Z,9.10
2018-06-20T11:44:03.690Z,9.00
2018-06-20T11:45:03.700Z,8.60
2018-06-20T11:46:03.680Z,9.40
2018-06-20T11:47:03.707Z,9.20
2018-06-20T11:48:03.681Z,9.20
2018-06-20T11:49:03.759Z,8.90
2018-06-20T11:50:03.663Z,8.70
2018-06-20T11:51:03.701Z,8.70
2018-06-20T11:52:03.642Z,8.70
2018-06-20T11:53:03.643Z,9.10
2018-06-20T11:54:03.633Z,9.10
2018-06-20T11:55:03.635Z,8.60
2018-06-20T11:56:03.624Z,8.20
2018-06-20T11:57:03.611Z,9.00
2018-06-20T11:58:03.644Z,8.50
2018-06-20T11:59:03.612Z,8.50
2018-06-20T12:00:03.595Z,7.50
2018-06-20T12:01:03.601Z,7.70
2018-06-20T12:02:03.583Z,8.70
2018-06-20T12:03:03.572Z,8.30
2018-06-20T12:04:03.572Z,8.00
2018-06-20T12:05:03.562Z,8.00
2018-06-20T12:06:03.565Z,8.20
2018-06-20T12:07:03.550Z,8.50
2018-06-20T12:08:03.541Z,8.20
2018-06-20T12:09:03.536Z,8.00
2018-06-20T12:10:03.534Z,8.20
2018-06-20T12:11:03.525Z,8.60
2018-06-20T12:12:03.519Z,7.70
2018-06-20T12:13:03.511Z,7.70
2018-06-20T12:14:03.520Z,8.10
2018-06-20T12:15:03.498Z,8.30
2018-06-20T12:16:03.506Z,8.10
2018-06-20T12:17:03.495Z,7.70
2018-06-20T12:18:03.482Z,8.50
2018-06-20T12:19:03.467Z,7.70
2018-06-20T12:20:03.466Z,7.00
2018-06-20T12:21:03.461Z,7.10
2018-06-20T12:22:03.472Z,7.10
2018-06-20T12:23:03.444Z,6.70
2018-06-20T12:24:03.441Z,6.70
2018-06-20T12:25:03.430Z,7.10
2018-06-20T12:26:03.493Z,7.10
2018-06-20T12:27:03.418Z,7.10
2018-06-20T12:28:03.415Z,6.80
2018-06-20T12:29:03.413Z,6.90
2018-06-20T12:30:03.401Z,7.10
2018-06-20T12:31:03.392Z,7.00
2018-06-20T12:32:03.437Z,7.10
2018-06-20T12:33:03.382Z,7.20
2018-06-20T12:34:03.373Z,7.30
2018-06-20T12:35:03.369Z,6.80
2018-06-20T12:36:03.361Z,7.30
2018-06-20T12:37:03.353Z,6.40
2018-06-20T12:38:03.349Z,7.40
2018-06-20T12:39:03.347Z,6.80
2018-06-20T12:40:03.334Z,6.90
2018-06-20T12:41:03.329Z,6.30
2018-06-20T12:42:03.364Z,6.60
2018-06-20T12:43:03.322Z,7.10
2018-06-20T12:44:03.317Z,6.80
2018-06-20T12:45:03.301Z,6.60
2018-06-20T12:46:03.314Z,6.40
2018-06-20T12:47:03.411Z,7.10
2018-06-20T12:48:03.284Z,6.90
2018-06-20T12:49:03.280Z,6.60
2018-06-20T12:50:03.318Z,6.60
2018-06-20T12:51:03.275Z,6.40
2018-06-20T12:52:03.264Z,6.70
2018-06-20T12:53:03.256Z,6.90
2018-06-20T12:54:03.252Z,6.30
2018-06-20T12:55:03.244Z,5.80